sensor_id;sensor_type;location;lat;lon;timestamp;P1;durP1;ratioP1;P2;durP2;ratioP2
73940;SDS011;62294;48.554;10.202;2022-10-17T00:02:10;2.22;;;1.33;;
73940;SDS011;62294;48.554;10.202;2022-10-17T00:04:37;3.25;;;1.30;;
73940;SDS011;62294;48.554;10.202;2022-10-17T00:07:03;6.10;;;1.30;;
73940;SDS011;62294;48.554;10.202;2022-10-17T00:09:29;5.78;;;1.30;;
73940;SDS011;62294;48.554;10.202;2022-10-17T00:11:56;2.22;;;1.10;;
73940;SDS011;62294;48.554;10.202;2022-10-17T00:14:22;1.55;;;1.10;;
73940;SDS011;62294;48.554;10.202;2022-10-17T00:16:49;1.58;;;1.08;;
73940;SDS011;62294;48.554;10.202;2022-10-17T00:19:15;1.80;;;1.30;;
73940;SDS011;62294;48.554;10.202;2022-10-17T00:21:42;2.42;;;1.17;;
73940;SDS011;62294;48.554;10.202;2022-10-17T00:24:08;2.10;;;1.38;;
73940;SDS011;62294;48.554;10.202;2022-10-17T00:26:35;2.83;;;1.23;;
73940;SDS011;62294;48.554;10.202;2022-10-17T00:29:02;3.60;;;1.60;;
73940;SDS011;62294;48.554;10.202;2022-10-17T00:31:28;3.47;;;1.50;;
73940;SDS011;62294;48.554;10.202;2022-10-17T00:33:55;4.95;;;1.60;;
73940;SDS011;62294;48.554;10.202;2022-10-17T00:36:22;1.27;;;0.95;;
73940;SDS011;62294;48.554;10.202;2022-10-17T00:38:53;3.78;;;1.30;;
73940;SDS011;62294;48.554;10.202;2022-10-17T00:41:23;2.42;;;1.50;;
73940;SDS011;62294;48.554;10.202;2022-10-17T00:44:02;3.40;;;1.20;;
73940;SDS011;62294;48.554;10.202;2022-10-17T00:46:32;2.00;;;1.73;;
73940;SDS011;62294;48.554;10.202;2022-10-17T00:49:02;1.63;;;1.17;;
73940;SDS011;62294;48.554;10.202;2022-10-17T00:51:33;2.65;;;1.15;;
73940;SDS011;62294;48.554;10.202;2022-10-17T00:54:12;3.88;;;1.50;;
73940;SDS011;62294;48.554;10.202;2022-10-17T00:56:41;4.50;;;1.42;;
73940;SDS011;62294;48.554;10.202;2022-10-17T00:59:10;3.90;;;1.23;;
73940;SDS011;62294;48.554;10.202;2022-10-17T01:01:42;1.92;;;1.30;;
73940;SDS011;62294;48.554;10.202;2022-10-17T01:04:14;4.28;;;1.27;;
73940;SDS011;62294;48.554;10.202;2022-10-17T01:06:41;3.85;;;1.35;;
73940;SDS011;62294;48.554;10.202;2022-10-17T01:09:07;2.28;;;1.30;;
73940;SDS011;62294;48.554;10.202;2022-10-17T01:11:44;4.43;;;1.50;;
73940;SDS011;62294;48.554;10.202;2022-10-17T01:17:11;1.60;;;1.10;;
73940;SDS011;62294;48.554;10.202;2022-10-17T01:20:07;3.88;;;1.20;;
73940;SDS011;62294;48.554;10.202;2022-10-17T01:22:49;3.17;;;1.30;;
73940;SDS011;62294;48.554;10.202;2022-10-17T01:31:19;1.73;;;1.00;;
73940;SDS011;62294;48.554;10.202;2022-10-17T01:36:55;1.38;;;1.10;;
73940;SDS011;62294;48.554;10.202;2022-10-17T01:45:02;3.42;;;1.17;;
73940;SDS011;62294;48.554;10.202;2022-10-17T01:47:41;1.05;;;0.85;;
73940;SDS011;62294;48.554;10.202;2022-10-17T01:50:13;2.03;;;1.10;;
73940;SDS011;62294;48.554;10.202;2022-10-17T01:52:44;4.13;;;1.30;;
73940;SDS011;62294;48.554;10.202;2022-10-17T01:55:25;2.00;;;1.10;;
73940;SDS011;62294;48.554;10.202;2022-10-17T01:58:00;3.22;;;1.40;;
73940;SDS011;62294;48.554;10.202;2022-10-17T02:00:32;6.43;;;1.33;;
73940;SDS011;62294;48.554;10.202;2022-10-17T02:03:01;1.58;;;1.00;;
73940;SDS011;62294;48.554;10.202;2022-10-17T02:05:35;3.28;;;1.13;;
73940;SDS011;62294;48.554;10.202;2022-10-17T02:08:05;4.43;;;1.35;;
73940;SDS011;62294;48.554;10.202;2022-10-17T02:10:39;2.85;;;1.10;;
73940;SDS011;62294;48.554;10.202;2022-10-17T02:13:17;3.15;;;1.00;;
73940;SDS011;62294;48.554;10.202;2022-10-17T02:35:15;1.33;;;1.00;;
73940;SDS011;62294;48.554;10.202;2022-10-17T02:37:45;2.47;;;0.95;;
73940;SDS011;62294;48.554;10.202;2022-10-17T02:40:12;2.88;;;1.27;;
73940;SDS011;62294;48.554;10.202;2022-10-17T02:42:41;2.92;;;1.20;;
73940;SDS011;62294;48.554;10.202;2022-10-17T02:45:12;2.17;;;1.10;;
73940;SDS011;62294;48.554;10.202;2022-10-17T02:50:13;5.57;;;2.20;;
73940;SDS011;62294;48.554;10.202;2022-10-17T02:52:43;3.50;;;1.13;;
73940;SDS011;62294;48.554;10.202;2022-10-17T02:55:28;1.70;;;1.13;;
73940;SDS011;62294;48.554;10.202;2022-10-17T03:00:29;2.45;;;1.02;;
73940;SDS011;62294;48.554;10.202;2022-10-17T03:02:57;5.60;;;1.05;;
73940;SDS011;62294;48.554;10.202;2022-10-17T03:05:27;2.95;;;1.20;;
73940;SDS011;62294;48.554;10.202;2022-10-17T03:07:54;1.55;;;1.00;;
73940;SDS011;62294;48.554;10.202;2022-10-17T03:10:21;2.83;;;1.33;;
73940;SDS011;62294;48.554;10.202;2022-10-17T03:12:48;3.35;;;2.45;;
73940;SDS011;62294;48.554;10.202;2022-10-17T03:15:14;2.25;;;1.13;;
73940;SDS011;62294;48.554;10.202;2022-10-17T03:17:41;1.98;;;1.60;;
73940;SDS011;62294;48.554;10.202;2022-10-17T03:20:08;2.38;;;1.23;;
73940;SDS011;62294;48.554;10.202;2022-10-17T03:22:34;1.70;;;1.25;;
73940;SDS011;62294;48.554;10.202;2022-10-17T03:25:01;1.98;;;1.20;;
73940;SDS011;62294;48.554;10.202;2022-10-17T03:27:28;1.35;;;1.13;;
73940;SDS011;62294;48.554;10.202;2022-10-17T03:29:55;5.38;;;1.45;;
73940;SDS011;62294;48.554;10.202;2022-10-17T03:32:21;3.75;;;1.30;;
73940;SDS011;62294;48.554;10.202;2022-10-17T03:34:48;2.58;;;1.08;;
73940;SDS011;62294;48.554;10.202;2022-10-17T03:37:14;2.22;;;1.58;;
73940;SDS011;62294;48.554;10.202;2022-10-17T03:39:41;2.22;;;1.02;;
73940;SDS011;62294;48.554;10.202;2022-10-17T03:42:07;3.03;;;1.10;;
73940;SDS011;62294;48.554;10.202;2022-10-17T03:44:34;4.00;;;1.38;;
73940;SDS011;62294;48.554;10.202;2022-10-17T03:47:01;3.72;;;1.20;;
73940;SDS011;62294;48.554;10.202;2022-10-17T03:49:27;1.33;;;0.98;;
73940;SDS011;62294;48.554;10.202;2022-10-17T03:51:54;1.35;;;1.00;;
73940;SDS011;62294;48.554;10.202;2022-10-17T03:54:21;1.10;;;1.00;;
73940;SDS011;62294;48.554;10.202;2022-10-17T03:56:47;1.73;;;1.20;;
73940;SDS011;62294;48.554;10.202;2022-10-17T03:59:14;1.50;;;1.20;;
73940;SDS011;62294;48.554;10.202;2022-10-17T04:01:41;1.88;;;0.90;;
73940;SDS011;62294;48.554;10.202;2022-10-17T04:04:07;3.53;;;1.48;;
73940;SDS011;62294;48.554;10.202;2022-10-17T04:06:35;1.10;;;1.00;;
73940;SDS011;62294;48.554;10.202;2022-10-17T04:09:02;1.65;;;1.30;;
73940;SDS011;62294;48.554;10.202;2022-10-17T04:11:29;2.10;;;1.33;;
73940;SDS011;62294;48.554;10.202;2022-10-17T04:13:56;6.95;;;1.42;;
73940;SDS011;62294;48.554;10.202;2022-10-17T04:16:24;2.92;;;1.00;;
73940;SDS011;62294;48.554;10.202;2022-10-17T04:18:52;1.42;;;1.00;;
73940;SDS011;62294;48.554;10.202;2022-10-17T04:21:21;1.00;;;0.90;;
73940;SDS011;62294;48.554;10.202;2022-10-17T04:23:56;1.02;;;0.93;;
73940;SDS011;62294;48.554;10.202;2022-10-17T04:26:24;1.15;;;1.00;;
73940;SDS011;62294;48.554;10.202;2022-10-17T04:28:50;1.65;;;1.25;;
73940;SDS011;62294;48.554;10.202;2022-10-17T04:31:17;1.30;;;1.00;;
73940;SDS011;62294;48.554;10.202;2022-10-17T04:33:47;1.33;;;1.20;;
73940;SDS011;62294;48.554;10.202;2022-10-17T04:36:16;1.33;;;1.10;;
73940;SDS011;62294;48.554;10.202;2022-10-17T04:38:44;1.73;;;1.20;;
73940;SDS011;62294;48.554;10.202;2022-10-17T04:41:12;3.95;;;1.30;;
73940;SDS011;62294;48.554;10.202;2022-10-17T04:43:40;3.92;;;1.35;;
73940;SDS011;62294;48.554;10.202;2022-10-17T04:46:13;3.10;;;1.20;;
73940;SDS011;62294;48.554;10.202;2022-10-17T04:48:40;1.58;;;1.17;;
73940;SDS011;62294;48.554;10.202;2022-10-17T04:51:08;3.28;;;1.38;;
73940;SDS011;62294;48.554;10.202;2022-10-17T04:53:37;3.25;;;1.33;;
73940;SDS011;62294;48.554;10.202;2022-10-17T04:56:15;9.55;;;1.80;;
73940;SDS011;62294;48.554;10.202;2022-10-17T04:58:44;4.10;;;1.60;;
73940;SDS011;62294;48.554;10.202;2022-10-17T05:01:12;2.72;;;1.65;;
73940;SDS011;62294;48.554;10.202;2022-10-17T05:03:41;1.77;;;1.35;;
73940;SDS011;62294;48.554;10.202;2022-10-17T05:06:08;3.67;;;1.95;;
73940;SDS011;62294;48.554;10.202;2022-10-17T05:08:36;2.70;;;1.40;;
73940;SDS011;62294;48.554;10.202;2022-10-17T05:11:03;2.13;;;1.45;;
73940;SDS011;62294;48.554;10.202;2022-10-17T05:13:31;2.38;;;1.38;;
73940;SDS011;62294;48.554;10.202;2022-10-17T05:16:01;9.05;;;1.67;;
73940;SDS011;62294;48.554;10.202;2022-10-17T05:18:28;4.15;;;1.42;;
73940;SDS011;62294;48.554;10.202;2022-10-17T05:20:54;2.35;;;1.60;;
73940;SDS011;62294;48.554;10.202;2022-10-17T05:23:21;7.57;;;1.90;;
73940;SDS011;62294;48.554;10.202;2022-10-17T05:25:52;3.33;;;1.83;;
73940;SDS011;62294;48.554;10.202;2022-10-17T05:28:19;4.07;;;1.50;;
73940;SDS011;62294;48.554;10.202;2022-10-17T05:30:46;4.32;;;1.50;;
73940;SDS011;62294;48.554;10.202;2022-10-17T05:33:13;4.63;;;1.92;;
73940;SDS011;62294;48.554;10.202;2022-10-17T05:35:39;3.13;;;1.38;;
73940;SDS011;62294;48.554;10.202;2022-10-17T05:38:05;3.03;;;1.50;;
73940;SDS011;62294;48.554;10.202;2022-10-17T05:40:32;4.72;;;1.90;;
73940;SDS011;62294;48.554;10.202;2022-10-17T05:42:59;3.50;;;1.73;;
73940;SDS011;62294;48.554;10.202;2022-10-17T05:45:25;4.35;;;2.00;;
73940;SDS011;62294;48.554;10.202;2022-10-17T05:47:52;3.72;;;1.65;;
73940;SDS011;62294;48.554;10.202;2022-10-17T05:50:18;3.38;;;2.63;;
73940;SDS011;62294;48.554;10.202;2022-10-17T05:52:47;5.07;;;1.52;;
73940;SDS011;62294;48.554;10.202;2022-10-17T05:55:13;2.15;;;1.52;;
73940;SDS011;62294;48.554;10.202;2022-10-17T05:57:40;4.38;;;1.70;;
73940;SDS011;62294;48.554;10.202;2022-10-17T06:00:06;2.75;;;1.50;;
73940;SDS011;62294;48.554;10.202;2022-10-17T06:02:33;2.20;;;1.45;;
73940;SDS011;62294;48.554;10.202;2022-10-17T06:04:59;2.65;;;1.25;;
73940;SDS011;62294;48.554;10.202;2022-10-17T06:07:26;3.78;;;1.58;;
73940;SDS011;62294;48.554;10.202;2022-10-17T06:09:53;2.20;;;1.40;;
73940;SDS011;62294;48.554;10.202;2022-10-17T06:12:19;4.25;;;1.65;;
73940;SDS011;62294;48.554;10.202;2022-10-17T06:14:45;2.40;;;1.40;;
73940;SDS011;62294;48.554;10.202;2022-10-17T06:17:12;3.53;;;1.73;;
73940;SDS011;62294;48.554;10.202;2022-10-17T06:19:41;5.85;;;1.63;;
73940;SDS011;62294;48.554;10.202;2022-10-17T06:22:10;4.78;;;2.33;;
73940;SDS011;62294;48.554;10.202;2022-10-17T06:24:36;10.23;;;3.70;;
73940;SDS011;62294;48.554;10.202;2022-10-17T06:27:03;9.85;;;3.83;;
73940;SDS011;62294;48.554;10.202;2022-10-17T06:29:37;8.13;;;3.30;;
73940;SDS011;62294;48.554;10.202;2022-10-17T06:32:04;11.00;;;4.60;;
73940;SDS011;62294;48.554;10.202;2022-10-17T06:34:37;12.23;;;4.50;;
73940;SDS011;62294;48.554;10.202;2022-10-17T06:37:04;10.38;;;4.22;;
73940;SDS011;62294;48.554;10.202;2022-10-17T06:39:30;12.93;;;5.20;;
73940;SDS011;62294;48.554;10.202;2022-10-17T06:41:59;13.10;;;4.68;;
73940;SDS011;62294;48.554;10.202;2022-10-17T06:44:26;11.13;;;4.28;;
73940;SDS011;62294;48.554;10.202;2022-10-17T06:46:57;14.48;;;4.70;;
73940;SDS011;62294;48.554;10.202;2022-10-17T06:49:25;10.45;;;4.47;;
73940;SDS011;62294;48.554;10.202;2022-10-17T06:51:53;13.45;;;4.20;;
73940;SDS011;62294;48.554;10.202;2022-10-17T06:54:19;12.48;;;4.30;;
73940;SDS011;62294;48.554;10.202;2022-10-17T06:56:46;11.55;;;4.55;;
73940;SDS011;62294;48.554;10.202;2022-10-17T06:59:13;8.45;;;3.83;;
73940;SDS011;62294;48.554;10.202;2022-10-17T07:01:40;12.00;;;4.07;;
73940;SDS011;62294;48.554;10.202;2022-10-17T07:04:12;8.50;;;4.10;;
73940;SDS011;62294;48.554;10.202;2022-10-17T07:06:39;8.05;;;4.05;;
73940;SDS011;62294;48.554;10.202;2022-10-17T07:09:05;7.78;;;3.85;;
73940;SDS011;62294;48.554;10.202;2022-10-17T07:11:32;9.40;;;4.40;;
73940;SDS011;62294;48.554;10.202;2022-10-17T07:14:02;11.63;;;4.38;;
73940;SDS011;62294;48.554;10.202;2022-10-17T07:16:28;8.68;;;4.05;;
73940;SDS011;62294;48.554;10.202;2022-10-17T07:18:55;12.88;;;4.57;;
73940;SDS011;62294;48.554;10.202;2022-10-17T07:21:22;14.05;;;5.85;;
73940;SDS011;62294;48.554;10.202;2022-10-17T07:23:48;9.63;;;5.38;;
73940;SDS011;62294;48.554;10.202;2022-10-17T07:26:15;6.63;;;4.40;;
73940;SDS011;62294;48.554;10.202;2022-10-17T07:28:44;7.32;;;4.85;;
73940;SDS011;62294;48.554;10.202;2022-10-17T07:31:13;7.82;;;5.30;;
73940;SDS011;62294;48.554;10.202;2022-10-17T07:33:42;14.98;;;7.57;;
73940;SDS011;62294;48.554;10.202;2022-10-17T07:36:14;8.68;;;5.53;;
73940;SDS011;62294;48.554;10.202;2022-10-17T07:38:44;9.68;;;5.38;;
73940;SDS011;62294;48.554;10.202;2022-10-17T07:41:11;10.27;;;5.13;;
73940;SDS011;62294;48.554;10.202;2022-10-17T07:43:45;8.02;;;5.47;;
73940;SDS011;62294;48.554;10.202;2022-10-17T07:46:12;9.85;;;5.90;;
73940;SDS011;62294;48.554;10.202;2022-10-17T07:48:39;10.15;;;5.93;;
73940;SDS011;62294;48.554;10.202;2022-10-17T07:51:06;8.48;;;5.45;;
73940;SDS011;62294;48.554;10.202;2022-10-17T07:53:35;10.98;;;5.53;;
73940;SDS011;62294;48.554;10.202;2022-10-17T07:56:03;7.68;;;4.70;;
73940;SDS011;62294;48.554;10.202;2022-10-17T07:58:31;7.97;;;4.40;;
73940;SDS011;62294;48.554;10.202;2022-10-17T08:01:06;8.25;;;5.15;;
73940;SDS011;62294;48.554;10.202;2022-10-17T08:03:40;9.05;;;5.13;;
73940;SDS011;62294;48.554;10.202;2022-10-17T08:06:09;5.35;;;3.65;;
73940;SDS011;62294;48.554;10.202;2022-10-17T08:08:35;6.28;;;4.07;;
73940;SDS011;62294;48.554;10.202;2022-10-17T08:11:04;5.47;;;3.95;;
73940;SDS011;62294;48.554;10.202;2022-10-17T08:13:33;6.43;;;3.38;;
73940;SDS011;62294;48.554;10.202;2022-10-17T08:16:01;4.38;;;3.35;;
73940;SDS011;62294;48.554;10.202;2022-10-17T08:18:29;4.25;;;2.67;;
73940;SDS011;62294;48.554;10.202;2022-10-17T08:20:59;4.72;;;2.90;;
73940;SDS011;62294;48.554;10.202;2022-10-17T08:23:27;7.45;;;3.40;;
73940;SDS011;62294;48.554;10.202;2022-10-17T08:25:54;7.05;;;2.75;;
73940;SDS011;62294;48.554;10.202;2022-10-17T08:28:24;4.22;;;3.05;;
73940;SDS011;62294;48.554;10.202;2022-10-17T08:30:51;7.13;;;3.25;;
73940;SDS011;62294;48.554;10.202;2022-10-17T08:33:18;4.40;;;2.88;;
73940;SDS011;62294;48.554;10.202;2022-10-17T08:35:44;7.78;;;3.58;;
73940;SDS011;62294;48.554;10.202;2022-10-17T08:38:11;5.68;;;3.22;;
73940;SDS011;62294;48.554;10.202;2022-10-17T08:40:38;4.65;;;2.83;;
73940;SDS011;62294;48.554;10.202;2022-10-17T08:43:11;6.93;;;3.20;;
73940;SDS011;62294;48.554;10.202;2022-10-17T08:45:55;4.57;;;3.10;;
73940;SDS011;62294;48.554;10.202;2022-10-17T08:48:26;5.75;;;3.42;;
73940;SDS011;62294;48.554;10.202;2022-10-17T08:50:58;8.13;;;3.33;;
73940;SDS011;62294;48.554;10.202;2022-10-17T08:53:38;5.53;;;3.65;;
73940;SDS011;62294;48.554;10.202;2022-10-17T08:56:17;7.22;;;3.70;;
73940;SDS011;62294;48.554;10.202;2022-10-17T08:59:03;9.18;;;3.97;;
73940;SDS011;62294;48.554;10.202;2022-10-17T09:01:32;9.10;;;4.25;;
73940;SDS011;62294;48.554;10.202;2022-10-17T09:12:46;11.18;;;5.22;;
73940;SDS011;62294;48.554;10.202;2022-10-17T09:15:36;6.30;;;3.92;;
73940;SDS011;62294;48.554;10.202;2022-10-17T09:20:46;4.57;;;3.40;;
73940;SDS011;62294;48.554;10.202;2022-10-17T09:23:18;6.03;;;4.10;;
73940;SDS011;62294;48.554;10.202;2022-10-17T09:25:52;7.18;;;4.18;;
73940;SDS011;62294;48.554;10.202;2022-10-17T09:28:21;6.43;;;3.83;;
73940;SDS011;62294;48.554;10.202;2022-10-17T09:33:40;6.88;;;4.07;;
73940;SDS011;62294;48.554;10.202;2022-10-17T09:36:26;10.25;;;4.22;;
73940;SDS011;62294;48.554;10.202;2022-10-17T09:39:02;9.23;;;4.25;;
73940;SDS011;62294;48.554;10.202;2022-10-17T09:41:47;7.78;;;4.68;;
73940;SDS011;62294;48.554;10.202;2022-10-17T09:47:05;7.57;;;4.78;;
73940;SDS011;62294;48.554;10.202;2022-10-17T09:52:14;8.80;;;4.40;;
73940;SDS011;62294;48.554;10.202;2022-10-17T09:54:45;5.97;;;4.03;;
73940;SDS011;62294;48.554;10.202;2022-10-17T09:57:14;4.50;;;3.35;;
73940;SDS011;62294;48.554;10.202;2022-10-17T09:59:58;7.03;;;3.95;;
73940;SDS011;62294;48.554;10.202;2022-10-17T10:02:27;7.43;;;4.70;;
73940;SDS011;62294;48.554;10.202;2022-10-17T10:05:13;5.63;;;3.50;;
73940;SDS011;62294;48.554;10.202;2022-10-17T10:07:42;7.57;;;3.72;;
73940;SDS011;62294;48.554;10.202;2022-10-17T10:10:26;7.22;;;4.20;;
73940;SDS011;62294;48.554;10.202;2022-10-17T10:13:02;5.47;;;3.88;;
73940;SDS011;62294;48.554;10.202;2022-10-17T10:17:59;7.18;;;3.78;;
73940;SDS011;62294;48.554;10.202;2022-10-17T10:20:28;8.18;;;3.95;;
73940;SDS011;62294;48.554;10.202;2022-10-17T10:23:04;6.32;;;4.18;;
73940;SDS011;62294;48.554;10.202;2022-10-17T10:25:50;8.50;;;4.45;;
73940;SDS011;62294;48.554;10.202;2022-10-17T10:28:19;8.07;;;4.45;;
73940;SDS011;62294;48.554;10.202;2022-10-17T10:30:50;5.57;;;4.38;;
73940;SDS011;62294;48.554;10.202;2022-10-17T10:33:18;7.75;;;4.10;;
73940;SDS011;62294;48.554;10.202;2022-10-17T10:36:08;5.70;;;4.00;;
73940;SDS011;62294;48.554;10.202;2022-10-17T10:38:34;6.57;;;3.83;;
73940;SDS011;62294;48.554;10.202;2022-10-17T10:41:08;5.80;;;3.75;;
73940;SDS011;62294;48.554;10.202;2022-10-17T10:43:37;5.25;;;3.50;;
73940;SDS011;62294;48.554;10.202;2022-10-17T10:46:22;6.55;;;4.18;;
73940;SDS011;62294;48.554;10.202;2022-10-17T10:51:26;7.07;;;4.65;;
73940;SDS011;62294;48.554;10.202;2022-10-17T10:54:20;5.88;;;3.92;;
73940;SDS011;62294;48.554;10.202;2022-10-17T10:56:55;5.90;;;3.90;;
73940;SDS011;62294;48.554;10.202;2022-10-17T10:59:29;7.03;;;3.67;;
73940;SDS011;62294;48.554;10.202;2022-10-17T11:02:11;8.65;;;4.32;;
73940;SDS011;62294;48.554;10.202;2022-10-17T11:07:53;6.10;;;3.40;;
73940;SDS011;62294;48.554;10.202;2022-10-17T11:13:25;5.47;;;3.58;;
73940;SDS011;62294;48.554;10.202;2022-10-17T11:16:20;5.20;;;3.28;;
73940;SDS011;62294;48.554;10.202;2022-10-17T11:18:54;6.32;;;3.50;;
73940;SDS011;62294;48.554;10.202;2022-10-17T11:21:40;6.30;;;3.33;;
73940;SDS011;62294;48.554;10.202;2022-10-17T11:24:22;6.28;;;3.10;;
73940;SDS011;62294;48.554;10.202;2022-10-17T11:26:53;4.75;;;3.33;;
73940;SDS011;62294;48.554;10.202;2022-10-17T11:29:26;7.55;;;3.50;;
73940;SDS011;62294;48.554;10.202;2022-10-17T11:31:54;4.45;;;2.95;;
73940;SDS011;62294;48.554;10.202;2022-10-17T11:34:28;5.88;;;3.53;;
73940;SDS011;62294;48.554;10.202;2022-10-17T11:36:59;5.88;;;2.70;;
73940;SDS011;62294;48.554;10.202;2022-10-17T11:39:39;5.68;;;3.15;;
73940;SDS011;62294;48.554;10.202;2022-10-17T11:42:12;6.25;;;3.70;;
73940;SDS011;62294;48.554;10.202;2022-10-17T11:45:02;7.80;;;4.10;;
73940;SDS011;62294;48.554;10.202;2022-10-17T11:47:45;6.53;;;2.92;;
73940;SDS011;62294;48.554;10.202;2022-10-17T11:50:25;5.72;;;3.33;;
73940;SDS011;62294;48.554;10.202;2022-10-17T11:53:19;8.27;;;3.53;;
73940;SDS011;62294;48.554;10.202;2022-10-17T11:55:49;5.20;;;3.00;;
73940;SDS011;62294;48.554;10.202;2022-10-17T12:03:47;5.20;;;3.45;;
73940;SDS011;62294;48.554;10.202;2022-10-17T12:12:00;7.25;;;3.38;;
73940;SDS011;62294;48.554;10.202;2022-10-17T12:14:36;5.03;;;2.95;;
73940;SDS011;62294;48.554;10.202;2022-10-17T12:22:47;8.02;;;3.63;;
73940;SDS011;62294;48.554;10.202;2022-10-17T12:25:16;4.15;;;2.97;;
73940;SDS011;62294;48.554;10.202;2022-10-17T12:27:46;4.55;;;2.92;;
73940;SDS011;62294;48.554;10.202;2022-10-17T12:30:24;5.40;;;3.67;;
73940;SDS011;62294;48.554;10.202;2022-10-17T12:33:03;4.22;;;3.05;;
73940;SDS011;62294;48.554;10.202;2022-10-17T12:35:43;4.88;;;3.00;;
73940;SDS011;62294;48.554;10.202;2022-10-17T12:38:17;15.60;;;4.65;;
73940;SDS011;62294;48.554;10.202;2022-10-17T12:45:49;5.85;;;2.90;;
73940;SDS011;62294;48.554;10.202;2022-10-17T12:51:06;5.18;;;2.70;;
73940;SDS011;62294;48.554;10.202;2022-10-17T12:53:59;8.70;;;3.08;;
73940;SDS011;62294;48.554;10.202;2022-10-17T12:56:46;8.05;;;2.97;;
73940;SDS011;62294;48.554;10.202;2022-10-17T12:59:23;4.32;;;2.67;;
73940;SDS011;62294;48.554;10.202;2022-10-17T13:01:52;6.25;;;2.50;;
73940;SDS011;62294;48.554;10.202;2022-10-17T13:04:23;5.00;;;2.70;;
73940;SDS011;62294;48.554;10.202;2022-10-17T13:06:51;4.10;;;2.17;;
73940;SDS011;62294;48.554;10.202;2022-10-17T13:09:22;4.88;;;2.10;;
73940;SDS011;62294;48.554;10.202;2022-10-17T13:11:56;5.43;;;2.70;;
73940;SDS011;62294;48.554;10.202;2022-10-17T13:14:24;5.25;;;2.47;;
73940;SDS011;62294;48.554;10.202;2022-10-17T13:19:29;5.68;;;2.50;;
73940;SDS011;62294;48.554;10.202;2022-10-17T13:22:10;8.13;;;2.60;;
73940;SDS011;62294;48.554;10.202;2022-10-17T13:24:42;7.38;;;2.63;;
73940;SDS011;62294;48.554;10.202;2022-10-17T13:27:27;3.47;;;2.00;;
73940;SDS011;62294;48.554;10.202;2022-10-17T13:29:56;4.75;;;2.70;;
73940;SDS011;62294;48.554;10.202;2022-10-17T13:32:26;9.15;;;3.45;;
73940;SDS011;62294;48.554;10.202;2022-10-17T13:35:10;4.93;;;2.45;;
73940;SDS011;62294;48.554;10.202;2022-10-17T13:37:39;5.28;;;3.40;;
73940;SDS011;62294;48.554;10.202;2022-10-17T13:40:17;7.35;;;2.60;;
73940;SDS011;62294;48.554;10.202;2022-10-17T13:43:24;6.00;;;2.33;;
73940;SDS011;62294;48.554;10.202;2022-10-17T13:45:52;2.85;;;1.92;;
73940;SDS011;62294;48.554;10.202;2022-10-17T13:48:25;7.25;;;2.40;;
73940;SDS011;62294;48.554;10.202;2022-10-17T13:50:54;4.38;;;2.08;;
73940;SDS011;62294;48.554;10.202;2022-10-17T13:58:56;3.72;;;1.92;;
73940;SDS011;62294;48.554;10.202;2022-10-17T14:01:33;5.78;;;2.10;;
73940;SDS011;62294;48.554;10.202;2022-10-17T14:04:00;4.38;;;2.17;;
73940;SDS011;62294;48.554;10.202;2022-10-17T14:06:36;3.70;;;1.85;;
73940;SDS011;62294;48.554;10.202;2022-10-17T14:11:57;6.57;;;2.03;;
73940;SDS011;62294;48.554;10.202;2022-10-17T14:14:31;4.25;;;2.38;;
73940;SDS011;62294;48.554;10.202;2022-10-17T14:17:28;5.53;;;1.90;;
73940;SDS011;62294;48.554;10.202;2022-10-17T14:19:57;3.20;;;2.03;;
73940;SDS011;62294;48.554;10.202;2022-10-17T14:22:48;7.63;;;2.40;;
73940;SDS011;62294;48.554;10.202;2022-10-17T14:25:37;4.13;;;2.08;;
73940;SDS011;62294;48.554;10.202;2022-10-17T14:30:40;4.15;;;1.98;;
73940;SDS011;62294;48.554;10.202;2022-10-17T14:33:23;5.45;;;2.10;;
73940;SDS011;62294;48.554;10.202;2022-10-17T14:35:54;4.03;;;2.05;;
73940;SDS011;62294;48.554;10.202;2022-10-17T14:38:22;4.80;;;2.20;;
73940;SDS011;62294;48.554;10.202;2022-10-17T14:40:50;2.58;;;1.85;;
73940;SDS011;62294;48.554;10.202;2022-10-17T14:43:34;7.20;;;2.03;;
73940;SDS011;62294;48.554;10.202;2022-10-17T14:46:01;5.65;;;2.45;;
73940;SDS011;62294;48.554;10.202;2022-10-17T14:48:28;5.68;;;2.60;;
73940;SDS011;62294;48.554;10.202;2022-10-17T14:51:14;7.10;;;2.33;;
73940;SDS011;62294;48.554;10.202;2022-10-17T14:53:43;4.68;;;2.30;;
73940;SDS011;62294;48.554;10.202;2022-10-17T14:56:39;7.63;;;2.72;;
73940;SDS011;62294;48.554;10.202;2022-10-17T14:59:07;5.63;;;2.80;;
73940;SDS011;62294;48.554;10.202;2022-10-17T15:01:49;4.57;;;2.00;;
73940;SDS011;62294;48.554;10.202;2022-10-17T15:04:16;5.20;;;2.08;;
73940;SDS011;62294;48.554;10.202;2022-10-17T15:06:43;6.25;;;2.35;;
73940;SDS011;62294;48.554;10.202;2022-10-17T15:09:10;5.85;;;3.38;;
73940;SDS011;62294;48.554;10.202;2022-10-17T15:11:37;7.60;;;2.80;;
73940;SDS011;62294;48.554;10.202;2022-10-17T15:14:03;7.93;;;2.80;;
73940;SDS011;62294;48.554;10.202;2022-10-17T15:16:31;5.57;;;2.00;;
73940;SDS011;62294;48.554;10.202;2022-10-17T15:18:59;4.60;;;2.10;;
73940;SDS011;62294;48.554;10.202;2022-10-17T15:21:26;8.05;;;2.33;;
73940;SDS011;62294;48.554;10.202;2022-10-17T15:24:05;5.78;;;2.28;;
73940;SDS011;62294;48.554;10.202;2022-10-17T15:26:32;9.88;;;2.97;;
73940;SDS011;62294;48.554;10.202;2022-10-17T15:29:00;5.07;;;1.90;;
73940;SDS011;62294;48.554;10.202;2022-10-17T15:31:27;4.93;;;2.22;;
73940;SDS011;62294;48.554;10.202;2022-10-17T15:33:56;3.78;;;2.20;;
73940;SDS011;62294;48.554;10.202;2022-10-17T15:38:54;4.72;;;1.90;;
73940;SDS011;62294;48.554;10.202;2022-10-17T15:41:24;4.90;;;2.03;;
73940;SDS011;62294;48.554;10.202;2022-10-17T15:43:52;6.45;;;2.78;;
73940;SDS011;62294;48.554;10.202;2022-10-17T15:46:19;6.50;;;2.30;;
73940;SDS011;62294;48.554;10.202;2022-10-17T15:48:49;5.28;;;1.90;;
73940;SDS011;62294;48.554;10.202;2022-10-17T15:51:16;6.90;;;2.65;;
73940;SDS011;62294;48.554;10.202;2022-10-17T15:53:43;6.50;;;2.15;;
73940;SDS011;62294;48.554;10.202;2022-10-17T15:56:14;5.57;;;2.15;;
73940;SDS011;62294;48.554;10.202;2022-10-17T15:58:46;9.05;;;1.90;;
73940;SDS011;62294;48.554;10.202;2022-10-17T16:01:27;9.82;;;2.58;;
73940;SDS011;62294;48.554;10.202;2022-10-17T16:03:55;5.20;;;2.05;;
73940;SDS011;62294;48.554;10.202;2022-10-17T16:06:23;5.03;;;1.73;;
73940;SDS011;62294;48.554;10.202;2022-10-17T16:08:49;8.00;;;1.98;;
73940;SDS011;62294;48.554;10.202;2022-10-17T16:13:48;6.18;;;2.15;;
73940;SDS011;62294;48.554;10.202;2022-10-17T16:16:17;5.22;;;1.88;;
73940;SDS011;62294;48.554;10.202;2022-10-17T16:18:44;12.43;;;3.45;;
73940;SDS011;62294;48.554;10.202;2022-10-17T16:21:11;6.82;;;2.53;;
73940;SDS011;62294;48.554;10.202;2022-10-17T16:23:39;2.63;;;1.90;;
73940;SDS011;62294;48.554;10.202;2022-10-17T16:26:07;4.53;;;2.15;;
73940;SDS011;62294;48.554;10.202;2022-10-17T16:28:34;5.80;;;2.20;;
73940;SDS011;62294;48.554;10.202;2022-10-17T16:31:01;5.63;;;2.00;;
73940;SDS011;62294;48.554;10.202;2022-10-17T16:33:27;7.30;;;2.15;;
73940;SDS011;62294;48.554;10.202;2022-10-17T16:35:56;4.55;;;1.88;;
73940;SDS011;62294;48.554;10.202;2022-10-17T16:38:22;7.55;;;1.83;;
73940;SDS011;62294;48.554;10.202;2022-10-17T16:40:49;4.70;;;1.90;;
73940;SDS011;62294;48.554;10.202;2022-10-17T16:43:16;6.57;;;2.28;;
73940;SDS011;62294;48.554;10.202;2022-10-17T16:45:42;5.68;;;2.08;;
73940;SDS011;62294;48.554;10.202;2022-10-17T16:48:09;3.78;;;1.88;;
73940;SDS011;62294;48.554;10.202;2022-10-17T16:50:37;6.55;;;2.22;;
73940;SDS011;62294;48.554;10.202;2022-10-17T16:53:04;4.45;;;2.42;;